Time;durP1;ratioP1;P1;durP2;ratioP2;P2;SDS_P1;SDS_P2;PMS_P1;PMS_P2;Temp;Humidity;BMP_temperature;BMP_pressure;BME280_temperature;BME280_humidity;BME280_pressure;Samples;Min_cycle;Max_cycle;Signal;HPM_P1;HPM_P2
2023/12/12 00:01:00;;;;;;;4.55;0.88;;;;;;;;;;4946005;29;20119;-89
2023/12/12 00:03:45;;;;;;;2.60;1.02;;;;;;;;;;4949819;29;20076;-90
2023/12/12 00:06:31;;;;;;;3.33;1.20;;;;;;;;;;4945762;29;20189;-90
2023/12/12 00:09:12;;;;;;;6.65;1.23;;;;;;;;;;4943634;29;20067;-91
2023/12/12 00:11:56;;;;;;;6.45;1.15;;;;;;;;;;4945688;29;20052;-90
2023/12/12 00:14:37;;;;;;;12.32;1.95;;;;;;;;;;4944348;29;20260;-90
2023/12/12 00:17:25;;;;;;;8.63;1.42;;;;;;;;;;4943881;29;20055;-91
2023/12/12 00:20:12;;;;;;;3.75;1.90;;;;;;;;;;4944440;28;20146;-90
2023/12/12 00:22:51;;;;;;;8.10;1.73;;;;;;;;;;4947658;29;20044;-91
2023/12/12 00:25:34;;;;;;;;;;;;;;;;;;4952570;28;20083;-89
2023/12/12 00:28:02;;;;;;;5.90;2.03;;;;;;;;;;4946657;28;19922;-90
2023/12/12 00:30:33;;;;;;;3.47;1.85;;;;;;;;;;4945534;29;20059;-91
2023/12/12 00:33:14;;;;;;;11.15;1.83;;;;;;;;;;4945361;28;20055;-89
2023/12/12 00:35:57;;;;;;;13.18;1.48;;;;;;;;;;4943300;29;20262;-90
2023/12/12 00:38:32;;;;;;;5.32;1.52;;;;;;;;;;4946146;29;20061;-91
2023/12/12 00:41:13;;;;;;;9.80;2.00;;;;;;;;;;4944020;29;20079;-91
2023/12/12 00:43:55;;;;;;;10.85;2.47;;;;;;;;;;4948214;29;20074;-91
2023/12/12 00:46:40;;;;;;;11.82;1.80;;;;;;;;;;4946337;28;20052;-91
2023/12/12 00:49:27;;;;;;;8.50;1.77;;;;;;;;;;4945441;29;20055;-92
2023/12/12 00:52:07;;;;;;;10.43;2.70;;;;;;;;;;4947147;29;20055;-90
2023/12/12 00:54:42;;;;;;;6.00;1.90;;;;;;;;;;4948108;28;20083;-91
2023/12/12 00:57:21;;;;;;;4.32;1.50;;;;;;;;;;4948245;29;20052;-92
2023/12/12 01:00:08;;;;;;;7.30;1.65;;;;;;;;;;4946148;29;20035;-92
2023/12/12 01:02:52;;;;;;;9.25;1.63;;;;;;;;;;4947300;29;20067;-91
2023/12/12 01:05:23;;;;;;;5.57;1.40;;;;;;;;;;4947189;28;20047;-92
2023/12/12 01:07:53;;;;;;;6.30;1.73;;;;;;;;;;4946894;29;20420;-91
2023/12/12 01:10:21;;;;;;;7.85;1.77;;;;;;;;;;4946682;29;20079;-92
2023/12/12 01:13:04;;;;;;;5.82;1.35;;;;;;;;;;4944960;29;20052;-92
2023/12/12 01:15:48;;;;;;;5.95;1.48;;;;;;;;;;4944613;29;20052;-92
2023/12/12 01:18:19;;;;;;;8.82;1.90;;;;;;;;;;4945673;29;20052;-91
2023/12/12 01:21:00;;;;;;;7.75;1.73;;;;;;;;;;4947183;29;20039;-92
2023/12/12 01:23:48;;;;;;;4.72;1.58;;;;;;;;;;4946520;28;20112;-91
2023/12/12 01:26:24;;;;;;;14.88;2.03;;;;;;;;;;4946245;28;20412;-92
2023/12/12 01:28:54;;;;;;;2.45;1.60;;;;;;;;;;4946569;29;20047;-91
2023/12/12 01:31:38;;;;;;;2.45;1.27;;;;;;;;;;4946949;29;20046;-91
2023/12/12 01:34:10;;;;;;;3.90;1.45;;;;;;;;;;4951594;28;20081;-91
2023/12/12 01:36:40;;;;;;;3.65;1.50;;;;;;;;;;4946488;29;20059;-90
2023/12/12 01:39:24;;;;;;;7.60;1.77;;;;;;;;;;4944465;29;20079;-90
2023/12/12 01:42:08;;;;;;;10.90;2.08;;;;;;;;;;4945245;29;20047;-91
2023/12/12 01:44:47;;;;;;;4.93;1.75;;;;;;;;;;4945744;29;20052;-91
2023/12/12 01:47:18;;;;;;;13.45;2.78;;;;;;;;;;4949193;28;20047;-90
2023/12/12 01:49:49;;;;;;;6.22;1.63;;;;;;;;;;4948522;29;20079;-91
2023/12/12 01:52:27;;;;;;;6.32;2.03;;;;;;;;;;4949064;29;20320;-91
2023/12/12 01:55:08;;;;;;;8.90;1.70;;;;;;;;;;4942811;29;20160;-90
2023/12/12 01:57:44;;;;;;;6.85;1.65;;;;;;;;;;4946547;28;20066;-92
2023/12/12 02:00:18;;;;;;;10.48;2.33;;;;;;;;;;4948335;29;20111;-91
2023/12/12 02:02:59;;;;;;;9.73;1.73;;;;;;;;;;4944707;29;20097;-92
2023/12/12 02:05:40;;;;;;;3.72;1.80;;;;;;;;;;4944544;29;20044;-90
2023/12/12 02:08:24;;;;;;;5.22;2.17;;;;;;;;;;4945141;29;20031;-91
2023/12/12 02:11:05;;;;;;;9.15;1.38;;;;;;;;;;4944910;28;20043;-91
2023/12/12 02:13:38;;;;;;;7.65;1.98;;;;;;;;;;4946916;29;20118;-91
2023/12/12 02:16:20;;;;;;;9.30;1.95;;;;;;;;;;4945486;29;20056;-92
2023/12/12 02:19:01;;;;;;;6.68;1.67;;;;;;;;;;4948157;29;20051;-90
2023/12/12 02:21:34;;;;;;;7.07;2.00;;;;;;;;;;4949479;28;20039;-91
2023/12/12 02:24:14;;;;;;;3.05;1.38;;;;;;;;;;4945168;29;20115;-92
2023/12/12 02:26:44;;;;;;;5.30;1.58;;;;;;;;;;4948274;28;20035;-91
2023/12/12 02:29:23;;;;;;;2.92;1.15;;;;;;;;;;4947600;28;20066;-92
2023/12/12 02:31:51;;;;;;;3.88;2.00;;;;;;;;;;4948847;29;20067;-92
2023/12/12 02:34:25;;;;;;;8.48;1.65;;;;;;;;;;4949657;29;20052;-90
2023/12/12 02:37:06;;;;;;;6.10;1.88;;;;;;;;;;4949683;29;20059;-91
2023/12/12 02:39:37;;;;;;;6.68;1.60;;;;;;;;;;4949980;29;20054;-91
2023/12/12 02:42:07;;;;;;;9.30;2.70;;;;;;;;;;4950987;29;20059;-91
2023/12/12 02:44:39;;;;;;;14.85;1.83;;;;;;;;;;4948035;29;20344;-92
2023/12/12 02:47:22;;;;;;;2.20;1.40;;;;;;;;;;4947308;29;20067;-91
2023/12/12 02:50:03;;;;;;;1.45;1.27;;;;;;;;;;4948397;29;20047;-91
2023/12/12 02:52:36;;;;;;;11.32;1.98;;;;;;;;;;4947813;29;20075;-92
2023/12/12 02:57:37;;;;;;;11.07;1.40;;;;;;;;;;4948574;29;20101;-92
2023/12/12 03:00:13;;;;;;;8.77;2.22;;;;;;;;;;4950357;28;20123;-92
2023/12/12 03:02:46;;;;;;;5.68;1.50;;;;;;;;;;4950023;28;20078;-90
2023/12/12 03:05:15;;;;;;;3.05;1.30;;;;;;;;;;4948908;29;20051;-91
2023/12/12 03:07:58;;;;;;;3.45;1.25;;;;;;;;;;4944818;29;20392;-91
2023/12/12 03:10:38;;;;;;;7.05;1.42;;;;;;;;;;4952637;28;20083;-91
2023/12/12 03:13:12;;;;;;;3.85;1.20;;;;;;;;;;4950318;28;20062;-91
2023/12/12 03:16:11;;;;;;;3.28;1.40;;;;;;;;;;4948745;29;20055;-91
2023/12/12 03:18:52;;;;;;;7.25;1.50;;;;;;;;;;4947341;29;20044;-92
2023/12/12 03:21:27;;;;;;;;;;;;;;;;;;4948892;28;20035;-91
2023/12/12 03:24:04;;;;;;;7.72;1.42;;;;;;;;;;4948200;28;19930;-92
2023/12/12 03:26:44;;;;;;;6.00;1.63;;;;;;;;;;4946858;29;20087;-92
2023/12/12 03:29:28;;;;;;;5.60;1.83;;;;;;;;;;4946257;28;20117;-90
2023/12/12 03:31:59;;;;;;;5.45;1.75;;;;;;;;;;4947400;29;20131;-91
2023/12/12 03:34:42;;;;;;;3.80;1.50;;;;;;;;;;4947312;29;20059;-92
2023/12/12 03:37:23;;;;;;;13.65;2.30;;;;;;;;;;4947664;28;20084;-91
2023/12/12 03:40:04;;;;;;;6.10;1.80;;;;;;;;;;4946253;29;20047;-91
2023/12/12 03:42:35;;;;;;;15.75;1.90;;;;;;;;;;4946844;28;20111;-92
2023/12/12 03:45:08;;;;;;;10.57;1.63;;;;;;;;;;4948172;29;20417;-91
2023/12/12 03:47:49;;;;;;;12.20;2.00;;;;;;;;;;4945327;29;20047;-92
2023/12/12 03:50:23;;;;;;;5.43;1.67;;;;;;;;;;4947007;28;20110;-91
2023/12/12 03:52:56;;;;;;;9.77;2.30;;;;;;;;;;4946264;29;20062;-91
2023/12/12 03:55:25;;;;;;;8.25;1.90;;;;;;;;;;4946697;29;20055;-92
2023/12/12 03:58:03;;;;;;;6.07;1.70;;;;;;;;;;4948535;29;20086;-91
2023/12/12 04:00:37;;;;;;;9.90;1.35;;;;;;;;;;4947966;29;20079;-92
2023/12/12 04:03:15;;;;;;;5.35;1.50;;;;;;;;;;4945832;29;20075;-92
2023/12/12 04:06:04;;;;;;;2.60;1.50;;;;;;;;;;4946861;28;20051;-91
2023/12/12 04:08:44;;;;;;;6.60;1.38;;;;;;;;;;4945029;29;20128;-91
2023/12/12 04:11:13;;;;;;;6.45;1.67;;;;;;;;;;4945897;29;20056;-90
2023/12/12 04:13:57;;;;;;;5.97;1.75;;;;;;;;;;4944729;29;20126;-91
2023/12/12 04:16:40;;;;;;;3.85;1.67;;;;;;;;;;4946965;29;20055;-91
2023/12/12 04:19:14;;;;;;;3.75;1.42;;;;;;;;;;4945786;28;20048;-91
2023/12/12 04:21:46;;;;;;;5.40;1.60;;;;;;;;;;4945326;29;20052;-92
2023/12/12 04:24:16;;;;;;;5.10;1.90;;;;;;;;;;4946998;29;20096;-92
2023/12/12 04:27:02;;;;;;;3.15;1.73;;;;;;;;;;4946239;29;20043;-90
2023/12/12 04:29:34;;;;;;;3.50;1.08;;;;;;;;;;4945416;29;20055;-91
2023/12/12 05:10:19;;;;;;;3.47;1.92;;;;;;;;;;5172171;23;20301;31
2023/12/12 05:13:01;;;;;;;3.10;1.38;;;;;;;;;;4946182;28;20043;-91
2023/12/12 05:15:43;;;;;;;12.00;1.77;;;;;;;;;;4948061;28;20040;-91
2023/12/12 05:18:26;;;;;;;3.47;1.70;;;;;;;;;;4946591;29;20283;-91
2023/12/12 05:21:04;;;;;;;4.88;1.60;;;;;;;;;;4943405;29;20070;-91
2023/12/12 05:23:45;;;;;;;6.07;1.85;;;;;;;;;;4943388;28;20107;-90
2023/12/12 05:26:29;;;;;;;5.18;1.25;;;;;;;;;;4944085;29;20031;-91
2023/12/12 05:29:13;;;;;;;;;;;;;;;;;;4943894;29;20118;-91
2023/12/12 05:31:54;;;;;;;6.20;1.77;;;;;;;;;;4943124;29;19933;-91
2023/12/12 05:44:52;;;;;;;6.63;2.08;;;;;;;;;;5873786;23;20062;-91
2023/12/12 05:47:33;;;;;;;3.85;1.70;;;;;;;;;;4943703;29;20090;-92
2023/12/12 05:50:16;;;;;;;10.05;1.75;;;;;;;;;;4944895;29;20046;-91
2023/12/12 05:52:51;;;;;;;5.88;1.70;;;;;;;;;;4942233;29;20055;-91
2023/12/12 05:55:32;;;;;;;7.40;2.95;;;;;;;;;;4942191;29;20058;-92
2023/12/12 05:58:04;;;;;;;9.65;1.70;;;;;;;;;;4949923;28;20078;-91
2023/12/12 06:00:46;;;;;;;6.47;2.03;;;;;;;;;;4944684;29;20111;-91
2023/12/12 06:03:31;;;;;;;5.93;2.20;;;;;;;;;;4941939;29;20066;-91
2023/12/12 06:06:09;;;;;;;6.13;2.53;;;;;;;;;;4940647;29;20051;-92
2023/12/12 06:08:44;;;;;;;9.68;2.50;;;;;;;;;;4941242;29;20056;-91
2023/12/12 06:11:24;;;;;;;4.25;2.33;;;;;;;;;;4942294;29;20350;-91
2023/12/12 06:13:53;;;;;;;8.90;2.47;;;;;;;;;;4942463;29;20127;-91
2023/12/12 06:16:49;;;;;;;8.02;3.20;;;;;;;;;;4941940;29;20117;-92
2023/12/12 06:19:30;;;;;;;5.00;2.42;;;;;;;;;;4939128;28;20069;-91
2023/12/12 06:22:14;;;;;;;7.28;2.25;;;;;;;;;;4940079;29;20083;-92
2023/12/12 06:24:46;;;;;;;5.53;2.42;;;;;;;;;;4940794;29;20083;-91
2023/12/12 06:27:27;;;;;;;11.02;2.72;;;;;;;;;;4939702;29;20140;-91
2023/12/12 06:30:09;;;;;;;12.15;2.63;;;;;;;;;;4935968;29;20107;-91
2023/12/12 06:32:50;;;;;;;5.05;2.40;;;;;;;;;;4939729;29;20616;-90
2023/12/12 06:35:31;;;;;;;6.78;2.08;;;;;;;;;;4943135;29;20090;-90
2023/12/12 06:38:04;;;;;;;5.55;1.92;;;;;;;;;;4942935;29;20112;-90
2023/12/12 06:40:37;;;;;;;5.95;3.03;;;;;;;;;;4942554;28;20080;-90
2023/12/12 06:46:29;;;;;;;13.55;3.42;;;;;;;;;;4941253;28;20066;-91
2023/12/12 06:49:19;;;;;;;5.32;2.30;;;;;;;;;;4939862;29;20044;-91
2023/12/12 06:52:03;;;;;;;12.35;2.85;;;;;;;;;;4941358;29;20412;-92
2023/12/12 06:54:35;;;;;;;6.05;2.42;;;;;;;;;;4942101;29;20055;-90
2023/12/12 06:57:16;;;;;;;9.80;3.08;;;;;;;;;;4942278;29;20096;-92
2023/12/12 07:00:00;;;;;;;4.53;2.60;;;;;;;;;;4945276;28;20296;-91
2023/12/12 07:02:31;;;;;;;7.43;3.00;;;;;;;;;;4942893;28;20051;-91
2023/12/12 07:05:15;;;;;;;11.30;3.40;;;;;;;;;;4942073;29;20235;-92
2023/12/12 07:07:55;;;;;;;5.47;2.70;;;;;;;;;;4940294;29;20051;-92
2023/12/12 07:10:25;;;;;;;7.53;2.20;;;;;;;;;;4940982;29;20094;-91
2023/12/12 07:12:55;;;;;;;4.93;2.20;;;;;;;;;;4940414;29;20066;-90
2023/12/12 07:15:33;;;;;;;14.02;2.67;;;;;;;;;;4939959;29;20051;-91
2023/12/12 07:18:11;;;;;;;9.05;2.75;;;;;;;;;;4942589;29;20079;-91
2023/12/12 07:20:56;;;;;;;4.93;2.80;;;;;;;;;;4945751;29;20056;-92
2023/12/12 07:23:38;;;;;;;8.20;2.80;;;;;;;;;;4947942;28;20047;-91
2023/12/12 07:26:25;;;;;;;10.30;3.20;;;;;;;;;;4943429;29;20106;-91
2023/12/12 07:28:55;;;;;;;8.52;2.67;;;;;;;;;;4944515;29;20276;-91
2023/12/12 07:31:27;;;;;;;15.50;3.22;;;;;;;;;;4942271;28;20048;-91
2023/12/12 07:34:02;;;;;;;8.48;2.67;;;;;;;;;;4943735;29;20056;-90
2023/12/12 07:36:33;;;;;;;6.82;2.88;;;;;;;;;;4942369;29;20121;-91
2023/12/12 07:39:06;;;;;;;7.13;3.20;;;;;;;;;;4943108;29;20055;-91
2023/12/12 07:41:48;;;;;;;8.23;3.53;;;;;;;;;;4943633;29;20231;-91
2023/12/12 07:44:21;;;;;;;5.75;3.00;;;;;;;;;;4944571;29;20105;-91
2023/12/12 07:46:51;;;;;;;9.25;3.45;;;;;;;;;;4943052;28;20063;-92
2023/12/12 07:49:35;;;;;;;7.20;3.28;;;;;;;;;;4944752;29;20062;-91
2023/12/12 07:52:18;;;;;;;15.60;4.80;;;;;;;;;;4942988;29;20062;-92
2023/12/12 07:55:05;;;;;;;14.18;2.95;;;;;;;;;;4945411;29;20056;-91
2023/12/12 07:57:41;;;;;;;9.40;3.13;;;;;;;;;;4945632;28;20055;-90
2023/12/12 08:00:20;;;;;;;9.68;4.63;;;;;;;;;;4946925;28;20079;-91
2023/12/12 08:02:55;;;;;;;8.50;4.28;;;;;;;;;;4944589;28;20069;-90
2023/12/12 08:05:28;;;;;;;16.98;5.65;;;;;;;;;;4943043;29;20062;-91
2023/12/12 08:08:03;;;;;;;15.25;4.85;;;;;;;;;;4942770;29;20058;-90
2023/12/12 08:10:44;;;;;;;9.27;4.82;;;;;;;;;;4942377;29;20256;-90
2023/12/12 08:13:27;;;;;;;8.15;3.75;;;;;;;;;;4942308;29;20066;-91
2023/12/12 08:16:03;;;;;;;9.85;4.15;;;;;;;;;;4941407;29;20067;-90
2023/12/12 08:18:45;;;;;;;11.35;4.35;;;;;;;;;;4939845;29;20043;-89
2023/12/12 08:21:25;;;;;;;9.68;4.72;;;;;;;;;;4941778;29;20039;-91
2023/12/12 08:24:06;;;;;;;15.18;4.72;;;;;;;;;;4942482;28;20117;-91
2023/12/12 08:26:49;;;;;;;7.60;3.30;;;;;;;;;;4937967;29;20047;-91
2023/12/12 08:29:20;;;;;;;15.35;4.68;;;;;;;;;;4940625;29;20348;-92
2023/12/12 08:31:49;;;;;;;11.00;3.63;;;;;;;;;;4940298;29;20122;-91
2023/12/12 08:34:33;;;;;;;8.80;3.85;;;;;;;;;;4939620;29;20063;-91
2023/12/12 08:37:19;;;;;;;12.30;5.10;;;;;;;;;;4940206;29;20051;-91
2023/12/12 08:39:56;;;;;;;14.32;4.70;;;;;;;;;;4940265;29;20058;-91
2023/12/12 08:42:39;;;;;;;5.55;3.88;;;;;;;;;;4939092;29;20063;-91
2023/12/12 08:45:11;;;;;;;9.70;5.05;;;;;;;;;;4940897;29;20056;-91
2023/12/12 08:47:52;;;;;;;25.73;5.15;;;;;;;;;;4947131;28;20071;-91
2023/12/12 08:50:35;;;;;;;10.77;3.92;;;;;;;;;;4939608;29;20048;-91
2023/12/12 08:53:04;;;;;;;10.88;4.57;;;;;;;;;;4940328;29;20071;-91
2023/12/12 08:55:32;;;;;;;11.23;4.72;;;;;;;;;;4941524;29;20047;-91
2023/12/12 08:58:12;;;;;;;10.80;4.22;;;;;;;;;;4940280;29;20082;-91
2023/12/12 18:24:29;;;;;;;34.53;11.60;;;;;;;;;;3716929;23;20663;-87
2023/12/12 18:27:04;;;;;;;26.58;10.07;;;;;;;;;;4921339;29;20389;-93
2023/12/12 18:29:35;;;;;;;23.25;10.50;;;;;;;;;;4925062;29;20056;-92
2023/12/12 18:32:11;;;;;;;38.30;10.60;;;;;;;;;;4925194;29;20084;-93
2023/12/12 18:34:46;;;;;;;22.63;10.10;;;;;;;;;;4926687;29;20067;-92
2023/12/12 18:38:02;;;;;;;24.63;8.63;;;;;;;;;;4929429;29;20104;-92
2023/12/12 18:40:38;;;;;;;23.90;9.93;;;;;;;;;;4923540;29;20077;-92
2023/12/12 18:43:14;;;;;;;28.60;9.80;;;;;;;;;;4924440;29;20056;-92
2023/12/12 18:46:25;;;;;;;;;;;;;;;;;;4926254;29;20114;-93
2023/12/12 18:56:08;;;;;;;25.88;10.02;;;;;;;;;;4846241;29;20073;-92
2023/12/12 18:58:52;;;;;;;28.23;10.20;;;;;;;;;;4835329;29;20081;-93
2023/12/12 19:12:23;;;;;;;32.20;10.52;;;;;;;;;;5143452;27;24425;-92
2023/12/12 19:15:05;;;;;;;25.95;8.95;;;;;;;;;;5137900;28;20051;-92
2023/12/12 19:20:41;;;;;;;18.02;7.05;;;;;;;;;;5137742;27;20039;-93
2023/12/12 19:23:23;;;;;;;18.75;8.95;;;;;;;;;;5117487;28;20039;-91
2023/12/12 19:25:58;;;;;;;21.30;8.05;;;;;;;;;;5138391;27;20051;-93
2023/12/12 19:28:29;;;;;;;16.73;7.60;;;;;;;;;;5121837;27;20050;-92
2023/12/12 19:31:02;;;;;;;16.08;7.15;;;;;;;;;;5122288;28;20069;-93
2023/12/12 19:33:45;;;;;;;23.48;9.02;;;;;;;;;;5139775;27;20083;-91
2023/12/12 19:36:14;;;;;;;19.63;8.48;;;;;;;;;;5125511;27;20080;-92
2023/12/12 19:39:03;;;;;;;19.85;6.90;;;;;;;;;;5136245;28;20069;-92
2023/12/12 19:41:37;;;;;;;17.83;7.38;;;;;;;;;;5120887;28;20082;-92
2023/12/12 19:44:09;;;;;;;23.48;8.00;;;;;;;;;;5118967;28;20031;-91
2023/12/12 19:46:44;;;;;;;19.42;8.05;;;;;;;;;;5118668;28;20031;-89
2023/12/12 19:56:13;;;;;;;13.80;7.10;;;;;;;;;;5100703;28;20055;-90
2023/12/12 19:59:03;;;;;;;22.45;7.60;;;;;;;;;;5120463;28;20047;-91
2023/12/12 20:39:42;;;;;;;14.55;5.68;;;;;;;;;;4945726;29;20120;-89
2023/12/12 20:43:23;;;;;;;11.27;5.22;;;;;;;;;;5024150;23;20054;-92
2023/12/12 20:51:56;;;;;;;9.30;5.20;;;;;;;;;;5898208;23;20118;-91
2023/12/12 20:54:50;;;;;;;15.30;5.55;;;;;;;;;;5030726;28;20110;-90
2023/12/12 20:57:53;;;;;;;12.93;4.60;;;;;;;;;;5086915;23;20058;-90
2023/12/12 21:00:49;;;;;;;10.35;4.28;;;;;;;;;;5015577;28;20053;-89
2023/12/12 21:03:34;;;;;;;8.45;3.72;;;;;;;;;;5010245;28;20124;-89
2023/12/12 21:06:26;;;;;;;26.25;4.70;;;;;;;;;;5024453;28;20051;-91
2023/12/12 21:09:20;;;;;;;16.48;6.38;;;;;;;;;;5010645;28;20034;-90
2023/12/12 21:12:05;;;;;;;9.75;3.67;;;;;;;;;;5010345;28;20415;-90
2023/12/12 21:15:00;;;;;;;14.63;5.20;;;;;;;;;;5026650;28;20071;-90
2023/12/12 21:17:49;;;;;;;11.77;4.90;;;;;;;;;;5028589;28;20211;-91
2023/12/12 21:20:30;;;;;;;;;;;;;;;;;;5012510;28;20164;-90
2023/12/12 21:33:28;;;;;;;16.02;4.55;;;;;;;;;;5019903;28;20049;-89
2023/12/12 21:36:14;;;;;;;15.35;4.38;;;;;;;;;;5005875;28;20045;-90
2023/12/12 21:38:58;;;;;;;17.92;5.45;;;;;;;;;;5021600;28;20058;-90
2023/12/12 21:41:46;;;;;;;14.32;4.53;;;;;;;;;;5009200;28;20117;-89
2023/12/12 21:44:32;;;;;;;13.52;3.85;;;;;;;;;;5006332;28;20045;-89
2023/12/12 21:47:21;;;;;;;13.48;4.78;;;;;;;;;;5022659;28;20133;-90
2023/12/12 21:50:07;;;;;;;12.50;4.70;;;;;;;;;;5006077;28;20060;-89
2023/12/12 21:52:47;;;;;;;14.13;5.72;;;;;;;;;;5005903;28;20053;-89
2023/12/12 21:55:35;;;;;;;7.95;4.30;;;;;;;;;;5022874;28;20025;-90
2023/12/12 21:58:21;;;;;;;9.82;4.53;;;;;;;;;;5009167;28;20050;-90
2023/12/12 22:01:07;;;;;;;13.55;5.65;;;;;;;;;;5021731;28;20050;-89
2023/12/12 22:03:49;;;;;;;10.55;4.68;;;;;;;;;;5005341;28;20041;-89
2023/12/12 22:06:39;;;;;;;10.93;4.72;;;;;;;;;;5006021;28;20519;-91
2023/12/12 22:09:19;;;;;;;15.65;5.57;;;;;;;;;;5005990;28;20073;-90
2023/12/12 22:12:00;;;;;;;11.70;5.45;;;;;;;;;;5009032;28;20077;-90
2023/12/12 22:14:47;;;;;;;10.75;4.40;;;;;;;;;;5004730;28;20054;-90
2023/12/12 22:17:32;;;;;;;16.98;4.32;;;;;;;;;;5020647;28;20064;-89
2023/12/12 22:20:13;;;;;;;13.77;6.40;;;;;;;;;;5003275;28;20070;-89
2023/12/12 22:22:54;;;;;;;12.98;3.83;;;;;;;;;;5003859;28;20507;-89
2023/12/12 22:25:35;;;;;;;9.27;3.95;;;;;;;;;;5005908;28;20052;-89
2023/12/12 22:28:17;;;;;;;5.18;3.33;;;;;;;;;;5005246;28;20336;-89
2023/12/12 22:31:01;;;;;;;8.02;4.30;;;;;;;;;;5005693;28;20050;-90
2023/12/12 22:33:30;;;;;;;6.70;2.97;;;;;;;;;;5003586;28;20138;-90
2023/12/12 22:36:18;;;;;;;10.95;4.10;;;;;;;;;;5004204;28;20049;-90
2023/12/12 22:38:53;;;;;;;9.23;3.95;;;;;;;;;;5020734;28;20050;-90
2023/12/12 22:41:30;;;;;;;7.68;3.22;;;;;;;;;;5003046;28;20058;-91
2023/12/12 22:44:11;;;;;;;5.27;3.37;;;;;;;;;;5003230;28;20408;-90
2023/12/12 22:46:51;;;;;;;7.13;3.10;;;;;;;;;;5009095;28;20417;-90
2023/12/12 22:49:24;;;;;;;4.43;2.80;;;;;;;;;;5003353;28;20049;-90
2023/12/12 22:52:00;;;;;;;10.20;2.83;;;;;;;;;;5007515;28;20073;-90
2023/12/12 22:54:30;;;;;;;14.23;4.07;;;;;;;;;;5007585;28;20049;-90
2023/12/12 22:57:11;;;;;;;6.57;3.42;;;;;;;;;;5003525;28;20058;-89
2023/12/12 22:59:55;;;;;;;6.05;4.35;;;;;;;;;;5003515;28;20049;-90
2023/12/12 23:02:36;;;;;;;8.63;4.00;;;;;;;;;;5003912;28;20049;-90
2023/12/12 23:05:04;;;;;;;8.18;3.83;;;;;;;;;;5002099;28;20050;-90
2023/12/12 23:07:46;;;;;;;6.65;4.03;;;;;;;;;;5001901;28;20109;-91
2023/12/12 23:10:28;;;;;;;8.38;3.05;;;;;;;;;;5005888;28;20054;-90
2023/12/12 23:13:01;;;;;;;10.30;4.32;;;;;;;;;;5002954;28;20054;-90
2023/12/12 23:15:29;;;;;;;5.30;3.67;;;;;;;;;;5002174;28;20117;-90
2023/12/12 23:18:12;;;;;;;6.80;3.35;;;;;;;;;;5003972;28;20056;-91
2023/12/12 23:20:53;;;;;;;7.25;3.38;;;;;;;;;;5003559;28;20178;-91
2023/12/12 23:28:47;;;;;;;7.90;3.80;;;;;;;;;;6049994;23;20021;-90
2023/12/12 23:31:30;;;;;;;13.90;4.57;;;;;;;;;;5001514;28;20481;-90
2023/12/12 23:34:03;;;;;;;;;;;;;;;;;;5003634;28;20038;-89
2023/12/12 23:36:43;;;;;;;8.05;3.28;;;;;;;;;;5003694;28;19921;-89
2023/12/12 23:39:26;;;;;;;11.80;4.28;;;;;;;;;;5003597;28;20202;-89
2023/12/12 23:41:59;;;;;;;6.70;4.20;;;;;;;;;;5004585;28;20046;-89
2023/12/12 23:44:41;;;;;;;13.50;4.75;;;;;;;;;;5002818;28;20535;-89
2023/12/12 23:47:24;;;;;;;6.28;3.45;;;;;;;;;;5005933;28;20034;-89
2023/12/12 23:49:53;;;;;;;9.63;4.57;;;;;;;;;;5006307;28;20198;-90
2023/12/12 23:52:32;;;;;;;6.65;4.10;;;;;;;;;;5007055;28;20065;-90
